sensor_id;sensor_type;location;lat;lon;timestamp;P1;durP1;ratioP1;P2;durP2;ratioP2
19179;SDS011;9722;48.754;8.868;2023-07-02T00:00:45;3.10;;;2.10;;
19179;SDS011;9722;48.754;8.868;2023-07-02T00:04:05;3.23;;;2.33;;
19179;SDS011;9722;48.754;8.868;2023-07-02T00:07:30;2.37;;;2.17;;
19179;SDS011;9722;48.754;8.868;2023-07-02T00:10:51;3.23;;;2.10;;
19179;SDS011;9722;48.754;8.868;2023-07-02T00:14:12;2.10;;;1.90;;
19179;SDS011;9722;48.754;8.868;2023-07-02T00:17:33;2.27;;;2.07;;
19179;SDS011;9722;48.754;8.868;2023-07-02T00:20:54;2.80;;;1.93;;
19179;SDS011;9722;48.754;8.868;2023-07-02T00:24:14;2.97;;;2.23;;
19179;SDS011;9722;48.754;8.868;2023-07-02T00:27:35;3.33;;;1.90;;
19179;SDS011;9722;48.754;8.868;2023-07-02T00:30:57;2.10;;;2.00;;
19179;SDS011;9722;48.754;8.868;2023-07-02T00:34:18;1.80;;;1.70;;
19179;SDS011;9722;48.754;8.868;2023-07-02T00:37:39;2.53;;;1.77;;
19179;SDS011;9722;48.754;8.868;2023-07-02T00:40:59;2.47;;;1.60;;
19179;SDS011;9722;48.754;8.868;2023-07-02T00:44:20;2.00;;;1.90;;
19179;SDS011;9722;48.754;8.868;2023-07-02T00:47:40;3.90;;;1.67;;
19179;SDS011;9722;48.754;8.868;2023-07-02T00:51:01;1.70;;;1.60;;
19179;SDS011;9722;48.754;8.868;2023-07-02T00:54:21;1.90;;;1.70;;
19179;SDS011;9722;48.754;8.868;2023-07-02T00:57:42;1.77;;;1.60;;
19179;SDS011;9722;48.754;8.868;2023-07-02T01:01:06;2.27;;;1.70;;
19179;SDS011;9722;48.754;8.868;2023-07-02T01:04:27;2.77;;;2.57;;
19179;SDS011;9722;48.754;8.868;2023-07-02T01:07:48;2.40;;;2.20;;
19179;SDS011;9722;48.754;8.868;2023-07-02T01:11:09;1.83;;;1.73;;
19179;SDS011;9722;48.754;8.868;2023-07-02T01:14:40;2.07;;;1.87;;
19179;SDS011;9722;48.754;8.868;2023-07-02T01:18:04;2.20;;;2.00;;
19179;SDS011;9722;48.754;8.868;2023-07-02T01:21:25;2.27;;;2.10;;
19179;SDS011;9722;48.754;8.868;2023-07-02T01:24:46;2.30;;;2.10;;
19179;SDS011;9722;48.754;8.868;2023-07-02T01:28:08;2.60;;;2.40;;
19179;SDS011;9722;48.754;8.868;2023-07-02T01:31:28;2.40;;;2.20;;
19179;SDS011;9722;48.754;8.868;2023-07-02T01:34:49;2.00;;;1.90;;
19179;SDS011;9722;48.754;8.868;2023-07-02T01:38:09;4.83;;;2.70;;
19179;SDS011;9722;48.754;8.868;2023-07-02T01:41:31;2.60;;;2.40;;
19179;SDS011;9722;48.754;8.868;2023-07-02T01:44:56;2.67;;;1.73;;
19179;SDS011;9722;48.754;8.868;2023-07-02T01:48:17;1.83;;;1.73;;
19179;SDS011;9722;48.754;8.868;2023-07-02T01:51:38;1.87;;;1.77;;
19179;SDS011;9722;48.754;8.868;2023-07-02T01:54:59;2.30;;;2.20;;
19179;SDS011;9722;48.754;8.868;2023-07-02T01:58:20;2.43;;;2.00;;
19179;SDS011;9722;48.754;8.868;2023-07-02T02:01:42;2.23;;;2.00;;
19179;SDS011;9722;48.754;8.868;2023-07-02T02:05:02;2.10;;;1.83;;
19179;SDS011;9722;48.754;8.868;2023-07-02T02:08:23;2.53;;;2.33;;
19179;SDS011;9722;48.754;8.868;2023-07-02T02:11:45;2.30;;;1.80;;
19179;SDS011;9722;48.754;8.868;2023-07-02T02:15:07;2.87;;;1.80;;
19179;SDS011;9722;48.754;8.868;2023-07-02T02:18:28;3.30;;;2.00;;
19179;SDS011;9722;48.754;8.868;2023-07-02T02:21:49;2.47;;;1.60;;
19179;SDS011;9722;48.754;8.868;2023-07-02T02:25:09;2.87;;;1.70;;
19179;SDS011;9722;48.754;8.868;2023-07-02T02:28:30;2.27;;;1.60;;
19179;SDS011;9722;48.754;8.868;2023-07-02T02:31:50;2.70;;;1.97;;
19179;SDS011;9722;48.754;8.868;2023-07-02T02:35:11;3.17;;;1.73;;
19179;SDS011;9722;48.754;8.868;2023-07-02T02:38:31;2.07;;;1.83;;
19179;SDS011;9722;48.754;8.868;2023-07-02T02:41:53;2.23;;;1.60;;
19179;SDS011;9722;48.754;8.868;2023-07-02T02:45:14;1.70;;;1.60;;
19179;SDS011;9722;48.754;8.868;2023-07-02T02:48:34;2.03;;;1.50;;
19179;SDS011;9722;48.754;8.868;2023-07-02T02:51:55;2.63;;;2.00;;
19179;SDS011;9722;48.754;8.868;2023-07-02T02:55:15;4.03;;;1.97;;
19179;SDS011;9722;48.754;8.868;2023-07-02T02:58:36;3.93;;;1.60;;
19179;SDS011;9722;48.754;8.868;2023-07-02T03:01:56;2.03;;;1.83;;
19179;SDS011;9722;48.754;8.868;2023-07-02T03:05:17;2.23;;;1.93;;
19179;SDS011;9722;48.754;8.868;2023-07-02T03:08:38;1.90;;;1.77;;
19179;SDS011;9722;48.754;8.868;2023-07-02T03:11:59;4.17;;;2.10;;
19179;SDS011;9722;48.754;8.868;2023-07-02T03:15:20;3.33;;;1.70;;
19179;SDS011;9722;48.754;8.868;2023-07-02T03:18:40;2.17;;;1.90;;
19179;SDS011;9722;48.754;8.868;2023-07-02T03:22:01;2.77;;;2.20;;
19179;SDS011;9722;48.754;8.868;2023-07-02T03:25:21;2.20;;;1.83;;
19179;SDS011;9722;48.754;8.868;2023-07-02T03:28:42;2.20;;;1.90;;
19179;SDS011;9722;48.754;8.868;2023-07-02T03:32:03;2.93;;;1.87;;
19179;SDS011;9722;48.754;8.868;2023-07-02T03:35:24;2.70;;;1.80;;
19179;SDS011;9722;48.754;8.868;2023-07-02T03:38:44;1.97;;;1.87;;
19179;SDS011;9722;48.754;8.868;2023-07-02T03:42:05;2.67;;;1.77;;
19179;SDS011;9722;48.754;8.868;2023-07-02T03:45:25;2.20;;;2.00;;
19179;SDS011;9722;48.754;8.868;2023-07-02T03:48:46;2.10;;;1.80;;
19179;SDS011;9722;48.754;8.868;2023-07-02T03:52:07;2.30;;;2.10;;
19179;SDS011;9722;48.754;8.868;2023-07-02T03:55:27;2.20;;;2.00;;
19179;SDS011;9722;48.754;8.868;2023-07-02T03:58:48;2.33;;;1.70;;
19179;SDS011;9722;48.754;8.868;2023-07-02T04:02:08;2.03;;;1.73;;
19179;SDS011;9722;48.754;8.868;2023-07-02T04:05:29;2.07;;;1.93;;
19179;SDS011;9722;48.754;8.868;2023-07-02T04:08:49;2.63;;;1.93;;
19179;SDS011;9722;48.754;8.868;2023-07-02T04:12:10;1.80;;;1.70;;
19179;SDS011;9722;48.754;8.868;2023-07-02T04:15:30;2.67;;;2.00;;
19179;SDS011;9722;48.754;8.868;2023-07-02T04:18:52;2.17;;;1.97;;
19179;SDS011;9722;48.754;8.868;2023-07-02T04:22:12;2.27;;;2.07;;
19179;SDS011;9722;48.754;8.868;2023-07-02T04:25:33;3.57;;;2.43;;
19179;SDS011;9722;48.754;8.868;2023-07-02T04:28:53;2.80;;;2.37;;
19179;SDS011;9722;48.754;8.868;2023-07-02T04:32:15;3.50;;;2.47;;
19179;SDS011;9722;48.754;8.868;2023-07-02T04:35:36;3.60;;;2.60;;
19179;SDS011;9722;48.754;8.868;2023-07-02T04:38:56;3.23;;;2.40;;
19179;SDS011;9722;48.754;8.868;2023-07-02T04:42:17;3.43;;;2.47;;
19179;SDS011;9722;48.754;8.868;2023-07-02T04:45:37;2.73;;;2.37;;
19179;SDS011;9722;48.754;8.868;2023-07-02T04:48:59;2.63;;;2.23;;
19179;SDS011;9722;48.754;8.868;2023-07-02T04:52:19;3.10;;;2.70;;
19179;SDS011;9722;48.754;8.868;2023-07-02T04:55:40;2.87;;;2.67;;
19179;SDS011;9722;48.754;8.868;2023-07-02T04:59:01;3.57;;;2.80;;
19179;SDS011;9722;48.754;8.868;2023-07-02T05:02:22;2.77;;;2.57;;
19179;SDS011;9722;48.754;8.868;2023-07-02T05:05:42;2.80;;;2.60;;
19179;SDS011;9722;48.754;8.868;2023-07-02T05:09:03;3.17;;;2.90;;
19179;SDS011;9722;48.754;8.868;2023-07-02T05:12:24;3.93;;;3.13;;
19179;SDS011;9722;48.754;8.868;2023-07-02T05:15:44;4.37;;;3.10;;
19179;SDS011;9722;48.754;8.868;2023-07-02T05:19:05;3.63;;;2.80;;
19179;SDS011;9722;48.754;8.868;2023-07-02T05:22:25;4.17;;;3.57;;
19179;SDS011;9722;48.754;8.868;2023-07-02T05:25:46;3.67;;;3.37;;
19179;SDS011;9722;48.754;8.868;2023-07-02T05:29:07;5.27;;;4.20;;
19179;SDS011;9722;48.754;8.868;2023-07-02T05:32:27;6.43;;;4.10;;
19179;SDS011;9722;48.754;8.868;2023-07-02T05:35:48;6.40;;;4.40;;
19179;SDS011;9722;48.754;8.868;2023-07-02T05:39:08;4.90;;;4.20;;
19179;SDS011;9722;48.754;8.868;2023-07-02T05:42:29;9.10;;;4.90;;
19179;SDS011;9722;48.754;8.868;2023-07-02T05:45:50;6.67;;;5.17;;
19179;SDS011;9722;48.754;8.868;2023-07-02T05:49:12;5.27;;;4.77;;
19179;SDS011;9722;48.754;8.868;2023-07-02T05:52:32;5.03;;;4.57;;
19179;SDS011;9722;48.754;8.868;2023-07-02T05:55:53;6.77;;;5.60;;
19179;SDS011;9722;48.754;8.868;2023-07-02T05:59:13;9.30;;;5.17;;
19179;SDS011;9722;48.754;8.868;2023-07-02T06:02:37;10.50;;;5.87;;
19179;SDS011;9722;48.754;8.868;2023-07-02T06:05:58;8.90;;;5.87;;
19179;SDS011;9722;48.754;8.868;2023-07-02T06:09:19;7.13;;;6.30;;
19179;SDS011;9722;48.754;8.868;2023-07-02T06:12:39;7.67;;;6.20;;
19179;SDS011;9722;48.754;8.868;2023-07-02T06:16:00;8.67;;;6.60;;
19179;SDS011;9722;48.754;8.868;2023-07-02T06:19:20;8.87;;;6.23;;
19179;SDS011;9722;48.754;8.868;2023-07-02T06:22:41;6.63;;;5.80;;
19179;SDS011;9722;48.754;8.868;2023-07-02T06:26:02;7.13;;;6.20;;
19179;SDS011;9722;48.754;8.868;2023-07-02T06:29:23;6.90;;;6.27;;
19179;SDS011;9722;48.754;8.868;2023-07-02T06:32:44;7.33;;;6.60;;
19179;SDS011;9722;48.754;8.868;2023-07-02T06:36:04;7.17;;;6.23;;
19179;SDS011;9722;48.754;8.868;2023-07-02T06:39:25;7.43;;;6.73;;
19179;SDS011;9722;48.754;8.868;2023-07-02T06:42:45;9.60;;;7.37;;
19179;SDS011;9722;48.754;8.868;2023-07-02T06:46:06;8.23;;;7.37;;
19179;SDS011;9722;48.754;8.868;2023-07-02T06:49:26;13.37;;;7.43;;
19179;SDS011;9722;48.754;8.868;2023-07-02T06:52:47;10.37;;;8.37;;
19179;SDS011;9722;48.754;8.868;2023-07-02T06:56:08;10.07;;;8.63;;
19179;SDS011;9722;48.754;8.868;2023-07-02T06:59:29;14.40;;;8.83;;
19179;SDS011;9722;48.754;8.868;2023-07-02T07:02:49;11.20;;;8.60;;
19179;SDS011;9722;48.754;8.868;2023-07-02T07:06:10;10.40;;;8.73;;
19179;SDS011;9722;48.754;8.868;2023-07-02T07:09:31;8.47;;;7.57;;
19179;SDS011;9722;48.754;8.868;2023-07-02T07:12:52;10.23;;;8.37;;
19179;SDS011;9722;48.754;8.868;2023-07-02T07:16:12;9.70;;;8.83;;
19179;SDS011;9722;48.754;8.868;2023-07-02T07:19:33;11.67;;;8.47;;
19179;SDS011;9722;48.754;8.868;2023-07-02T07:22:53;11.77;;;9.47;;
19179;SDS011;9722;48.754;8.868;2023-07-02T07:26:14;13.07;;;9.60;;
19179;SDS011;9722;48.754;8.868;2023-07-02T07:29:34;10.27;;;9.27;;
19179;SDS011;9722;48.754;8.868;2023-07-02T07:32:55;9.73;;;8.83;;
19179;SDS011;9722;48.754;8.868;2023-07-02T07:36:16;11.60;;;9.63;;
19179;SDS011;9722;48.754;8.868;2023-07-02T07:39:37;10.63;;;9.03;;
19179;SDS011;9722;48.754;8.868;2023-07-02T07:42:57;14.20;;;9.80;;
19179;SDS011;9722;48.754;8.868;2023-07-02T07:46:18;11.87;;;10.47;;
19179;SDS011;9722;48.754;8.868;2023-07-02T07:49:39;18.23;;;9.70;;
19179;SDS011;9722;48.754;8.868;2023-07-02T07:52:59;11.63;;;10.47;;
19179;SDS011;9722;48.754;8.868;2023-07-02T07:56:20;12.07;;;10.20;;
19179;SDS011;9722;48.754;8.868;2023-07-02T07:59:40;11.90;;;10.43;;
19179;SDS011;9722;48.754;8.868;2023-07-02T08:03:01;11.27;;;10.07;;
19179;SDS011;9722;48.754;8.868;2023-07-02T08:06:23;10.87;;;9.87;;
19179;SDS011;9722;48.754;8.868;2023-07-02T08:09:44;15.23;;;10.30;;
19179;SDS011;9722;48.754;8.868;2023-07-02T08:13:04;11.27;;;10.27;;
19179;SDS011;9722;48.754;8.868;2023-07-02T08:16:24;11.10;;;10.03;;
19179;SDS011;9722;48.754;8.868;2023-07-02T08:19:45;11.03;;;9.93;;
19179;SDS011;9722;48.754;8.868;2023-07-02T08:23:05;10.70;;;9.53;;
19179;SDS011;9722;48.754;8.868;2023-07-02T08:26:26;12.37;;;9.17;;
19179;SDS011;9722;48.754;8.868;2023-07-02T08:29:47;10.47;;;9.13;;
19179;SDS011;9722;48.754;8.868;2023-07-02T08:33:07;10.00;;;9.00;;
19179;SDS011;9722;48.754;8.868;2023-07-02T08:36:28;10.70;;;9.67;;
19179;SDS011;9722;48.754;8.868;2023-07-02T08:39:48;10.50;;;9.53;;
19179;SDS011;9722;48.754;8.868;2023-07-02T08:43:09;9.70;;;8.67;;
19179;SDS011;9722;48.754;8.868;2023-07-02T08:46:30;10.80;;;9.23;;
19179;SDS011;9722;48.754;8.868;2023-07-02T08:49:51;12.27;;;9.93;;
19179;SDS011;9722;48.754;8.868;2023-07-02T08:53:11;10.20;;;9.20;;
19179;SDS011;9722;48.754;8.868;2023-07-02T08:56:32;9.83;;;8.93;;
19179;SDS011;9722;48.754;8.868;2023-07-02T08:59:52;9.57;;;8.57;;
19179;SDS011;9722;48.754;8.868;2023-07-02T09:03:13;10.17;;;8.30;;
19179;SDS011;9722;48.754;8.868;2023-07-02T09:06:37;9.63;;;8.73;;
19179;SDS011;9722;48.754;8.868;2023-07-02T09:09:58;9.87;;;8.93;;
19179;SDS011;9722;48.754;8.868;2023-07-02T09:13:18;10.60;;;9.60;;
19179;SDS011;9722;48.754;8.868;2023-07-02T09:16:39;10.40;;;9.40;;
19179;SDS011;9722;48.754;8.868;2023-07-02T09:20:02;10.37;;;9.37;;
19179;SDS011;9722;48.754;8.868;2023-07-02T09:23:35;8.53;;;7.83;;
19179;SDS011;9722;48.754;8.868;2023-07-02T09:26:57;9.47;;;8.57;;
19179;SDS011;9722;48.754;8.868;2023-07-02T09:30:18;9.93;;;9.13;;
19179;SDS011;9722;48.754;8.868;2023-07-02T09:33:39;10.00;;;9.07;;
19179;SDS011;9722;48.754;8.868;2023-07-02T09:37:00;11.00;;;10.00;;
19179;SDS011;9722;48.754;8.868;2023-07-02T09:40:22;10.30;;;9.27;;
19179;SDS011;9722;48.754;8.868;2023-07-02T09:43:45;10.60;;;9.60;;
19179;SDS011;9722;48.754;8.868;2023-07-02T09:47:06;10.30;;;9.23;;
19179;SDS011;9722;48.754;8.868;2023-07-02T09:50:27;10.10;;;9.20;;
19179;SDS011;9722;48.754;8.868;2023-07-02T09:53:50;10.63;;;9.63;;
19179;SDS011;9722;48.754;8.868;2023-07-02T09:57:11;10.30;;;9.40;;
19179;SDS011;9722;48.754;8.868;2023-07-02T10:00:31;11.43;;;10.43;;
19179;SDS011;9722;48.754;8.868;2023-07-02T10:03:52;12.00;;;10.90;;
19179;SDS011;9722;48.754;8.868;2023-07-02T10:07:13;11.43;;;10.23;;
19179;SDS011;9722;48.754;8.868;2023-07-02T10:10:46;13.07;;;10.93;;
19179;SDS011;9722;48.754;8.868;2023-07-02T10:14:07;10.73;;;9.83;;
19179;SDS011;9722;48.754;8.868;2023-07-02T10:17:31;11.23;;;10.33;;
19179;SDS011;9722;48.754;8.868;2023-07-02T10:20:52;11.90;;;10.80;;
19179;SDS011;9722;48.754;8.868;2023-07-02T10:24:14;11.17;;;9.97;;
19179;SDS011;9722;48.754;8.868;2023-07-02T10:27:36;10.80;;;9.80;;
19179;SDS011;9722;48.754;8.868;2023-07-02T10:31:01;11.17;;;10.27;;
19179;SDS011;9722;48.754;8.868;2023-07-02T10:34:28;11.73;;;10.63;;
19179;SDS011;9722;48.754;8.868;2023-07-02T10:37:49;11.33;;;10.33;;
19179;SDS011;9722;48.754;8.868;2023-07-02T10:41:10;12.13;;;10.87;;
19179;SDS011;9722;48.754;8.868;2023-07-02T10:44:31;11.53;;;10.63;;
19179;SDS011;9722;48.754;8.868;2023-07-02T10:47:51;11.87;;;10.70;;
19179;SDS011;9722;48.754;8.868;2023-07-02T10:51:12;11.60;;;10.70;;
19179;SDS011;9722;48.754;8.868;2023-07-02T10:54:46;12.27;;;11.10;;
19179;SDS011;9722;48.754;8.868;2023-07-02T10:58:07;11.93;;;10.93;;
19179;SDS011;9722;48.754;8.868;2023-07-02T11:01:30;14.40;;;13.20;;
19179;SDS011;9722;48.754;8.868;2023-07-02T11:04:51;12.13;;;11.03;;
19179;SDS011;9722;48.754;8.868;2023-07-02T11:08:13;12.13;;;11.03;;
19179;SDS011;9722;48.754;8.868;2023-07-02T11:11:34;11.93;;;10.83;;
19179;SDS011;9722;48.754;8.868;2023-07-02T11:14:54;11.50;;;10.63;;
19179;SDS011;9722;48.754;8.868;2023-07-02T11:18:16;12.57;;;11.50;;
19179;SDS011;9722;48.754;8.868;2023-07-02T11:21:37;12.03;;;10.93;;
19179;SDS011;9722;48.754;8.868;2023-07-02T11:25:07;11.93;;;10.93;;
19179;SDS011;9722;48.754;8.868;2023-07-02T11:28:32;12.63;;;11.57;;
19179;SDS011;9722;48.754;8.868;2023-07-02T11:31:54;12.07;;;11.00;;
19179;SDS011;9722;48.754;8.868;2023-07-02T11:35:33;12.30;;;11.30;;
19179;SDS011;9722;48.754;8.868;2023-07-02T11:38:55;11.80;;;10.88;;
19179;SDS011;9722;48.754;8.868;2023-07-02T11:42:15;12.02;;;10.60;;
19179;SDS011;9722;48.754;8.868;2023-07-02T11:45:36;12.13;;;11.02;;
19179;SDS011;9722;48.754;8.868;2023-07-02T11:48:56;11.82;;;10.93;;
19179;SDS011;9722;48.754;8.868;2023-07-02T11:52:17;12.82;;;11.60;;
19179;SDS011;9722;48.754;8.868;2023-07-02T11:55:38;11.30;;;10.50;;
19179;SDS011;9722;48.754;8.868;2023-07-02T11:58:58;11.30;;;10.38;;
19179;SDS011;9722;48.754;8.868;2023-07-02T12:02:19;11.02;;;10.13;;
19179;SDS011;9722;48.754;8.868;2023-07-02T12:05:40;12.05;;;11.15;;
19179;SDS011;9722;48.754;8.868;2023-07-02T12:09:00;12.15;;;11.13;;
19179;SDS011;9722;48.754;8.868;2023-07-02T12:12:21;11.35;;;10.50;;
19179;SDS011;9722;48.754;8.868;2023-07-02T12:15:41;11.35;;;10.50;;
19179;SDS011;9722;48.754;8.868;2023-07-02T12:19:02;11.30;;;10.50;;
19179;SDS011;9722;48.754;8.868;2023-07-02T12:22:22;12.32;;;11.35;;
19179;SDS011;9722;48.754;8.868;2023-07-02T12:25:43;11.95;;;11.05;;
19179;SDS011;9722;48.754;8.868;2023-07-02T12:29:03;12.20;;;11.20;;
19179;SDS011;9722;48.754;8.868;2023-07-02T12:32:24;11.75;;;10.90;;
19179;SDS011;9722;48.754;8.868;2023-07-02T12:35:44;12.35;;;11.43;;
19179;SDS011;9722;48.754;8.868;2023-07-02T12:39:05;10.77;;;9.98;;
19179;SDS011;9722;48.754;8.868;2023-07-02T12:42:26;11.98;;;10.98;;
19179;SDS011;9722;48.754;8.868;2023-07-02T12:45:46;11.98;;;10.98;;
19179;SDS011;9722;48.754;8.868;2023-07-02T12:49:07;12.32;;;11.05;;
19179;SDS011;9722;48.754;8.868;2023-07-02T12:52:28;11.57;;;10.75;;
19179;SDS011;9722;48.754;8.868;2023-07-02T12:55:49;11.68;;;10.73;;
19179;SDS011;9722;48.754;8.868;2023-07-02T12:59:10;12.05;;;11.05;;
19179;SDS011;9722;48.754;8.868;2023-07-02T13:02:30;11.15;;;10.35;;
19179;SDS011;9722;48.754;8.868;2023-07-02T13:05:51;11.63;;;10.63;;
19179;SDS011;9722;48.754;8.868;2023-07-02T13:09:11;11.95;;;11.02;;
19179;SDS011;9722;48.754;8.868;2023-07-02T13:12:32;12.43;;;11.48;;
19179;SDS011;9722;48.754;8.868;2023-07-02T13:15:52;11.95;;;10.95;;
19179;SDS011;9722;48.754;8.868;2023-07-02T13:19:13;12.30;;;11.18;;
19179;SDS011;9722;48.754;8.868;2023-07-02T13:22:35;12.55;;;11.45;;
19179;SDS011;9722;48.754;8.868;2023-07-02T13:25:57;12.50;;;11.50;;
19179;SDS011;9722;48.754;8.868;2023-07-02T13:29:17;11.83;;;10.93;;
19179;SDS011;9722;48.754;8.868;2023-07-02T13:32:38;12.63;;;11.53;;
19179;SDS011;9722;48.754;8.868;2023-07-02T13:35:58;11.67;;;10.57;;
19179;SDS011;9722;48.754;8.868;2023-07-02T13:39:19;11.33;;;10.23;;
19179;SDS011;9722;48.754;8.868;2023-07-02T13:42:39;12.70;;;11.60;;
19179;SDS011;9722;48.754;8.868;2023-07-02T13:46:02;13.63;;;11.17;;
19179;SDS011;9722;48.754;8.868;2023-07-02T13:49:23;11.70;;;10.50;;
19179;SDS011;9722;48.754;8.868;2023-07-02T13:52:43;11.43;;;10.43;;
19179;SDS011;9722;48.754;8.868;2023-07-02T13:56:06;11.07;;;10.03;;
19179;SDS011;9722;48.754;8.868;2023-07-02T13:59:26;11.00;;;9.90;;
19179;SDS011;9722;48.754;8.868;2023-07-02T14:02:47;11.73;;;10.63;;
19179;SDS011;9722;48.754;8.868;2023-07-02T14:06:07;11.43;;;10.43;;
19179;SDS011;9722;48.754;8.868;2023-07-02T14:09:29;11.60;;;10.57;;
19179;SDS011;9722;48.754;8.868;2023-07-02T14:12:49;11.00;;;10.00;;
19179;SDS011;9722;48.754;8.868;2023-07-02T14:16:10;11.33;;;10.33;;
19179;SDS011;9722;48.754;8.868;2023-07-02T14:19:30;12.00;;;10.90;;
19179;SDS011;9722;48.754;8.868;2023-07-02T14:22:51;11.17;;;10.10;;
19179;SDS011;9722;48.754;8.868;2023-07-02T14:26:11;11.77;;;10.47;;
19179;SDS011;9722;48.754;8.868;2023-07-02T14:29:32;14.17;;;12.77;;
19179;SDS011;9722;48.754;8.868;2023-07-02T14:32:52;12.87;;;11.63;;
19179;SDS011;9722;48.754;8.868;2023-07-02T14:36:13;13.50;;;12.07;;
19179;SDS011;9722;48.754;8.868;2023-07-02T14:39:34;12.37;;;11.27;;
19179;SDS011;9722;48.754;8.868;2023-07-02T14:42:54;11.70;;;10.50;;
19179;SDS011;9722;48.754;8.868;2023-07-02T14:46:15;12.87;;;11.57;;
19179;SDS011;9722;48.754;8.868;2023-07-02T14:49:36;11.60;;;10.60;;
19179;SDS011;9722;48.754;8.868;2023-07-02T14:52:57;11.83;;;10.57;;
19179;SDS011;9722;48.754;8.868;2023-07-02T14:56:17;11.90;;;10.80;;
19179;SDS011;9722;48.754;8.868;2023-07-02T14:59:38;13.40;;;10.40;;
19179;SDS011;9722;48.754;8.868;2023-07-02T15:02:59;11.50;;;10.33;;
19179;SDS011;9722;48.754;8.868;2023-07-02T15:06:19;11.97;;;10.93;;
19179;SDS011;9722;48.754;8.868;2023-07-02T15:09:40;13.40;;;11.97;;
19179;SDS011;9722;48.754;8.868;2023-07-02T15:13:01;12.30;;;11.30;;
19179;SDS011;9722;48.754;8.868;2023-07-02T15:16:21;13.50;;;10.63;;
19179;SDS011;9722;48.754;8.868;2023-07-02T15:19:42;11.20;;;10.00;;
19179;SDS011;9722;48.754;8.868;2023-07-02T15:23:02;12.10;;;10.93;;
19179;SDS011;9722;48.754;8.868;2023-07-02T15:26:23;12.27;;;11.07;;
19179;SDS011;9722;48.754;8.868;2023-07-02T15:29:45;11.77;;;10.67;;
19179;SDS011;9722;48.754;8.868;2023-07-02T15:33:05;11.77;;;10.57;;
19179;SDS011;9722;48.754;8.868;2023-07-02T15:36:26;11.93;;;10.83;;
19179;SDS011;9722;48.754;8.868;2023-07-02T15:39:48;10.97;;;9.97;;
19179;SDS011;9722;48.754;8.868;2023-07-02T15:43:09;11.73;;;10.53;;
19179;SDS011;9722;48.754;8.868;2023-07-02T15:46:30;14.37;;;10.70;;
19179;SDS011;9722;48.754;8.868;2023-07-02T15:49:52;14.23;;;10.93;;
19179;SDS011;9722;48.754;8.868;2023-07-02T15:53:13;11.83;;;10.63;;
19179;SDS011;9722;48.754;8.868;2023-07-02T15:56:33;12.67;;;10.43;;
19179;SDS011;9722;48.754;8.868;2023-07-02T15:59:54;12.60;;;10.30;;
19179;SDS011;9722;48.754;8.868;2023-07-02T16:03:15;11.93;;;10.80;;
19179;SDS011;9722;48.754;8.868;2023-07-02T16:06:36;11.77;;;10.73;;
19179;SDS011;9722;48.754;8.868;2023-07-02T16:09:57;12.80;;;10.63;;
19179;SDS011;9722;48.754;8.868;2023-07-02T16:13:19;11.20;;;9.97;;
19179;SDS011;9722;48.754;8.868;2023-07-02T16:16:40;11.13;;;10.03;;
19179;SDS011;9722;48.754;8.868;2023-07-02T16:20:01;11.27;;;10.27;;
19179;SDS011;9722;48.754;8.868;2023-07-02T16:23:22;10.77;;;9.77;;
19179;SDS011;9722;48.754;8.868;2023-07-02T16:26:43;11.27;;;10.17;;
19179;SDS011;9722;48.754;8.868;2023-07-02T16:30:04;11.77;;;10.57;;
19179;SDS011;9722;48.754;8.868;2023-07-02T16:33:25;11.53;;;9.97;;
19179;SDS011;9722;48.754;8.868;2023-07-02T16:36:45;11.60;;;10.20;;
19179;SDS011;9722;48.754;8.868;2023-07-02T16:40:07;11.43;;;10.33;;
19179;SDS011;9722;48.754;8.868;2023-07-02T16:43:27;11.20;;;10.20;;
19179;SDS011;9722;48.754;8.868;2023-07-02T16:46:49;11.00;;;9.90;;
19179;SDS011;9722;48.754;8.868;2023-07-02T16:50:11;11.60;;;10.30;;
19179;SDS011;9722;48.754;8.868;2023-07-02T16:53:32;10.87;;;9.77;;
19179;SDS011;9722;48.754;8.868;2023-07-02T16:56:54;11.43;;;10.33;;
19179;SDS011;9722;48.754;8.868;2023-07-02T17:00:16;12.67;;;10.80;;
19179;SDS011;9722;48.754;8.868;2023-07-02T17:03:37;11.23;;;10.23;;
19179;SDS011;9722;48.754;8.868;2023-07-02T17:06:58;12.80;;;10.50;;
19179;SDS011;9722;48.754;8.868;2023-07-02T17:10:19;13.07;;;11.13;;
19179;SDS011;9722;48.754;8.868;2023-07-02T17:13:40;11.97;;;10.57;;
19179;SDS011;9722;48.754;8.868;2023-07-02T17:17:01;10.67;;;9.67;;
19179;SDS011;9722;48.754;8.868;2023-07-02T17:20:23;11.23;;;10.23;;
19179;SDS011;9722;48.754;8.868;2023-07-02T17:23:44;14.63;;;10.43;;
19179;SDS011;9722;48.754;8.868;2023-07-02T17:27:04;11.83;;;10.27;;
19179;SDS011;9722;48.754;8.868;2023-07-02T17:30:25;10.97;;;9.87;;
19179;SDS011;9722;48.754;8.868;2023-07-02T17:33:46;11.97;;;10.40;;
19179;SDS011;9722;48.754;8.868;2023-07-02T17:37:07;10.97;;;9.97;;
19179;SDS011;9722;48.754;8.868;2023-07-02T17:40:28;14.53;;;11.03;;
19179;SDS011;9722;48.754;8.868;2023-07-02T17:43:52;12.70;;;10.17;;
19179;SDS011;9722;48.754;8.868;2023-07-02T17:47:16;12.70;;;10.33;;
19179;SDS011;9722;48.754;8.868;2023-07-02T17:50:37;14.20;;;11.20;;
19179;SDS011;9722;48.754;8.868;2023-07-02T17:53:58;12.97;;;11.57;;
19179;SDS011;9722;48.754;8.868;2023-07-02T17:57:18;11.90;;;10.03;;
19179;SDS011;9722;48.754;8.868;2023-07-02T18:00:39;12.27;;;11.03;;
19179;SDS011;9722;48.754;8.868;2023-07-02T18:03:59;12.00;;;10.37;;
19179;SDS011;9722;48.754;8.868;2023-07-02T18:07:20;12.07;;;10.77;;
19179;SDS011;9722;48.754;8.868;2023-07-02T18:10:41;13.33;;;10.73;;
19179;SDS011;9722;48.754;8.868;2023-07-02T18:14:05;12.10;;;10.80;;
19179;SDS011;9722;48.754;8.868;2023-07-02T18:17:26;12.67;;;10.80;;
19179;SDS011;9722;48.754;8.868;2023-07-02T18:20:47;11.17;;;10.07;;
19179;SDS011;9722;48.754;8.868;2023-07-02T18:24:09;12.10;;;10.80;;
19179;SDS011;9722;48.754;8.868;2023-07-02T18:27:29;12.57;;;11.27;;
19179;SDS011;9722;48.754;8.868;2023-07-02T18:30:50;12.00;;;10.80;;
19179;SDS011;9722;48.754;8.868;2023-07-02T18:34:11;13.57;;;11.00;;
19179;SDS011;9722;48.754;8.868;2023-07-02T18:37:31;11.63;;;10.47;;
19179;SDS011;9722;48.754;8.868;2023-07-02T18:41:02;10.90;;;9.80;;
19179;SDS011;9722;48.754;8.868;2023-07-02T18:44:26;12.70;;;10.60;;
19179;SDS011;9722;48.754;8.868;2023-07-02T18:47:53;14.30;;;11.43;;
19179;SDS011;9722;48.754;8.868;2023-07-02T18:51:14;11.67;;;10.37;;
19179;SDS011;9722;48.754;8.868;2023-07-02T18:54:34;11.53;;;10.33;;
19179;SDS011;9722;48.754;8.868;2023-07-02T18:57:55;16.40;;;11.20;;
19179;SDS011;9722;48.754;8.868;2023-07-02T19:01:17;14.77;;;10.67;;
19179;SDS011;9722;48.754;8.868;2023-07-02T19:04:37;13.67;;;11.30;;
19179;SDS011;9722;48.754;8.868;2023-07-02T19:07:58;15.17;;;11.30;;
19179;SDS011;9722;48.754;8.868;2023-07-02T19:11:18;11.83;;;10.20;;
19179;SDS011;9722;48.754;8.868;2023-07-02T19:14:39;13.90;;;11.30;;
19179;SDS011;9722;48.754;8.868;2023-07-02T19:18:00;12.70;;;10.67;;
19179;SDS011;9722;48.754;8.868;2023-07-02T19:21:21;14.43;;;10.63;;
19179;SDS011;9722;48.754;8.868;2023-07-02T19:24:43;14.10;;;10.57;;
19179;SDS011;9722;48.754;8.868;2023-07-02T19:28:03;12.23;;;10.93;;
19179;SDS011;9722;48.754;8.868;2023-07-02T19:31:24;12.17;;;10.50;;
19179;SDS011;9722;48.754;8.868;2023-07-02T19:34:44;13.27;;;10.37;;
19179;SDS011;9722;48.754;8.868;2023-07-02T19:38:07;11.70;;;10.40;;
19179;SDS011;9722;48.754;8.868;2023-07-02T19:41:27;15.17;;;10.63;;
19179;SDS011;9722;48.754;8.868;2023-07-02T19:44:54;18.47;;;11.10;;
19179;SDS011;9722;48.754;8.868;2023-07-02T19:48:16;12.80;;;10.37;;
19179;SDS011;9722;48.754;8.868;2023-07-02T19:51:37;12.70;;;10.27;;
19179;SDS011;9722;48.754;8.868;2023-07-02T19:55:00;15.13;;;11.43;;
19179;SDS011;9722;48.754;8.868;2023-07-02T19:58:23;14.70;;;11.27;;
19179;SDS011;9722;48.754;8.868;2023-07-02T20:01:44;12.20;;;10.63;;
19179;SDS011;9722;48.754;8.868;2023-07-02T20:05:04;14.37;;;10.93;;
19179;SDS011;9722;48.754;8.868;2023-07-02T20:08:25;13.07;;;9.97;;